Tampa, Florida
Current Conditions -  °F | °C
As of 11:53 AM on Thursday 30 Oct 2014 (Local Time) from KTPA Reporting Station
Broken Clouds Broken Clouds  
Wind Chill: 82°   Ceiling: 25000
Heat Index: 83°   Visibility: 10mi
Dew Point: 61°   Wind: 0mph
Humidity: 49%   Direction: NA
Pressure: 29.98"   Gusts: NA
Location:  27.95°N, 82.46°W
Report Text: KTPA 301553Z 00000KT 10SM FEW040 SCT100 BKN250 28/16 A2998 RMK AO2 SLP153 T02780161
Loading
Personal Weather Stations






























Interactive Weather Map
Tropical Storm Tracking
New forecast layout! Learn more

10-Day Weather Forecast

Advertisements
Track Severe Weather on mobile